sensor_id;sensor_type;location;lat;lon;timestamp;temperature;humidity
52245;DHT22;55759;51.586;-1.758;2023-11-21T00:01:31;10.20;88.90
52245;DHT22;55759;51.586;-1.758;2023-11-21T00:03:57;10.20;89.20
52245;DHT22;55759;51.586;-1.758;2023-11-21T00:06:23;10.20;89.40
52245;DHT22;55759;51.586;-1.758;2023-11-21T00:08:49;10.20;89.60
52245;DHT22;55759;51.586;-1.758;2023-11-21T00:11:14;10.20;89.70
52245;DHT22;55759;51.586;-1.758;2023-11-21T00:13:40;10.20;89.90
52245;DHT22;55759;51.586;-1.758;2023-11-21T00:16:06;10.20;89.90
52245;DHT22;55759;51.586;-1.758;2023-11-21T00:18:32;10.20;90.00
52245;DHT22;55759;51.586;-1.758;2023-11-21T00:20:58;10.20;90.00
52245;DHT22;55759;51.586;-1.758;2023-11-21T00:23:27;10.20;90.10
52245;DHT22;55759;51.586;-1.758;2023-11-21T00:25:53;10.20;90.00
52245;DHT22;55759;51.586;-1.758;2023-11-21T00:28:18;10.20;90.00
52245;DHT22;55759;51.586;-1.758;2023-11-21T00:30:44;10.20;89.80
52245;DHT22;55759;51.586;-1.758;2023-11-21T00:33:10;10.20;89.80
52245;DHT22;55759;51.586;-1.758;2023-11-21T00:35:35;10.20;89.90
52245;DHT22;55759;51.586;-1.758;2023-11-21T00:38:01;10.20;90.10
52245;DHT22;55759;51.586;-1.758;2023-11-21T00:40:28;10.20;90.30
52245;DHT22;55759;51.586;-1.758;2023-11-21T00:42:54;10.10;90.50
52245;DHT22;55759;51.586;-1.758;2023-11-21T00:45:21;10.10;90.50
52245;DHT22;55759;51.586;-1.758;2023-11-21T00:47:47;10.10;90.60
52245;DHT22;55759;51.586;-1.758;2023-11-21T00:50:12;10.10;90.70
52245;DHT22;55759;51.586;-1.758;2023-11-21T00:52:38;10.10;90.80
52245;DHT22;55759;51.586;-1.758;2023-11-21T00:55:06;10.10;90.90
52245;DHT22;55759;51.586;-1.758;2023-11-21T00:57:33;10.10;90.90
52245;DHT22;55759;51.586;-1.758;2023-11-21T00:59:59;10.10;91.00
52245;DHT22;55759;51.586;-1.758;2023-11-21T01:02:25;10.10;91.10
52245;DHT22;55759;51.586;-1.758;2023-11-21T01:04:51;10.10;91.10
52245;DHT22;55759;51.586;-1.758;2023-11-21T01:07:16;10.10;91.10
52245;DHT22;55759;51.586;-1.758;2023-11-21T01:09:42;10.00;91.30
52245;DHT22;55759;51.586;-1.758;2023-11-21T01:12:09;10.00;91.30
52245;DHT22;55759;51.586;-1.758;2023-11-21T01:14:35;10.00;91.40
52245;DHT22;55759;51.586;-1.758;2023-11-21T01:17:02;10.10;91.40
52245;DHT22;55759;51.586;-1.758;2023-11-21T01:19:29;10.10;91.40
52245;DHT22;55759;51.586;-1.758;2023-11-21T01:21:55;10.10;91.40
52245;DHT22;55759;51.586;-1.758;2023-11-21T01:24:21;10.10;91.40
52245;DHT22;55759;51.586;-1.758;2023-11-21T01:26:46;10.10;91.40
52245;DHT22;55759;51.586;-1.758;2023-11-21T01:29:12;10.10;91.30
52245;DHT22;55759;51.586;-1.758;2023-11-21T01:31:37;10.10;91.30
52245;DHT22;55759;51.586;-1.758;2023-11-21T01:34:05;10.10;91.30
52245;DHT22;55759;51.586;-1.758;2023-11-21T01:36:31;10.10;91.40
52245;DHT22;55759;51.586;-1.758;2023-11-21T01:38:57;10.10;91.50
52245;DHT22;55759;51.586;-1.758;2023-11-21T01:41:25;10.10;91.60
52245;DHT22;55759;51.586;-1.758;2023-11-21T01:43:52;10.10;91.70
52245;DHT22;55759;51.586;-1.758;2023-11-21T01:46:19;10.10;91.60
52245;DHT22;55759;51.586;-1.758;2023-11-21T01:48:45;10.10;91.60
52245;DHT22;55759;51.586;-1.758;2023-11-21T01:51:14;10.10;91.60
52245;DHT22;55759;51.586;-1.758;2023-11-21T01:53:40;10.10;91.50
52245;DHT22;55759;51.586;-1.758;2023-11-21T01:56:06;10.10;91.50
52245;DHT22;55759;51.586;-1.758;2023-11-21T01:58:33;10.00;91.40
52245;DHT22;55759;51.586;-1.758;2023-11-21T02:00:58;10.10;91.30
52245;DHT22;55759;51.586;-1.758;2023-11-21T02:03:26;10.00;91.30
52245;DHT22;55759;51.586;-1.758;2023-11-21T02:05:52;10.10;91.40
52245;DHT22;55759;51.586;-1.758;2023-11-21T02:08:19;10.00;91.50
52245;DHT22;55759;51.586;-1.758;2023-11-21T02:10:45;10.00;91.60
52245;DHT22;55759;51.586;-1.758;2023-11-21T02:13:10;10.10;91.50
52245;DHT22;55759;51.586;-1.758;2023-11-21T02:15:36;10.00;91.50
52245;DHT22;55759;51.586;-1.758;2023-11-21T02:18:03;10.10;91.50
52245;DHT22;55759;51.586;-1.758;2023-11-21T02:20:31;10.10;91.50
52245;DHT22;55759;51.586;-1.758;2023-11-21T02:23:00;10.10;91.40
52245;DHT22;55759;51.586;-1.758;2023-11-21T02:25:29;10.10;91.30
52245;DHT22;55759;51.586;-1.758;2023-11-21T02:27:55;10.10;91.10
52245;DHT22;55759;51.586;-1.758;2023-11-21T02:30:21;10.10;91.10
52245;DHT22;55759;51.586;-1.758;2023-11-21T02:32:47;10.10;91.10
52245;DHT22;55759;51.586;-1.758;2023-11-21T02:35:13;10.10;91.10
52245;DHT22;55759;51.586;-1.758;2023-11-21T02:37:39;10.10;90.90
52245;DHT22;55759;51.586;-1.758;2023-11-21T02:40:06;10.10;90.80
52245;DHT22;55759;51.586;-1.758;2023-11-21T02:42:32;10.10;90.80
52245;DHT22;55759;51.586;-1.758;2023-11-21T02:44:58;10.10;90.80
52245;DHT22;55759;51.586;-1.758;2023-11-21T02:47:23;10.10;90.80
52245;DHT22;55759;51.586;-1.758;2023-11-21T02:49:49;10.20;90.80
52245;DHT22;55759;51.586;-1.758;2023-11-21T02:52:15;10.20;90.70
52245;DHT22;55759;51.586;-1.758;2023-11-21T02:54:41;10.20;90.70
52245;DHT22;55759;51.586;-1.758;2023-11-21T02:57:08;10.20;90.60
52245;DHT22;55759;51.586;-1.758;2023-11-21T02:59:33;10.20;90.60
52245;DHT22;55759;51.586;-1.758;2023-11-21T03:02:00;10.20;90.50
52245;DHT22;55759;51.586;-1.758;2023-11-21T03:04:25;10.20;90.40
52245;DHT22;55759;51.586;-1.758;2023-11-21T03:06:51;10.30;90.40
52245;DHT22;55759;51.586;-1.758;2023-11-21T03:09:17;10.20;90.40
52245;DHT22;55759;51.586;-1.758;2023-11-21T03:11:42;10.20;90.60
52245;DHT22;55759;51.586;-1.758;2023-11-21T03:14:08;10.20;90.60
52245;DHT22;55759;51.586;-1.758;2023-11-21T03:16:34;10.10;90.70
52245;DHT22;55759;51.586;-1.758;2023-11-21T03:18:59;10.20;90.70
52245;DHT22;55759;51.586;-1.758;2023-11-21T03:21:25;10.20;90.70
52245;DHT22;55759;51.586;-1.758;2023-11-21T03:23:51;10.20;90.80
52245;DHT22;55759;51.586;-1.758;2023-11-21T03:26:18;10.10;90.90
52245;DHT22;55759;51.586;-1.758;2023-11-21T03:28:43;10.20;90.80
52245;DHT22;55759;51.586;-1.758;2023-11-21T03:31:09;10.20;90.70
52245;DHT22;55759;51.586;-1.758;2023-11-21T03:33:35;10.20;90.60
52245;DHT22;55759;51.586;-1.758;2023-11-21T03:36:03;10.20;90.60
52245;DHT22;55759;51.586;-1.758;2023-11-21T03:38:29;10.20;90.70
52245;DHT22;55759;51.586;-1.758;2023-11-21T03:43:33;10.20;90.60
52245;DHT22;55759;51.586;-1.758;2023-11-21T03:45:58;10.20;90.70
52245;DHT22;55759;51.586;-1.758;2023-11-21T03:48:24;10.20;90.70
52245;DHT22;55759;51.586;-1.758;2023-11-21T03:50:49;10.20;90.70
52245;DHT22;55759;51.586;-1.758;2023-11-21T03:53:15;10.20;90.80
52245;DHT22;55759;51.586;-1.758;2023-11-21T03:55:41;10.20;90.80
52245;DHT22;55759;51.586;-1.758;2023-11-21T03:58:06;10.20;90.80
52245;DHT22;55759;51.586;-1.758;2023-11-21T04:00:32;10.20;90.80
52245;DHT22;55759;51.586;-1.758;2023-11-21T04:02:57;10.20;90.60
52245;DHT22;55759;51.586;-1.758;2023-11-21T04:05:24;10.30;90.20
52245;DHT22;55759;51.586;-1.758;2023-11-21T04:07:49;10.20;89.90
52245;DHT22;55759;51.586;-1.758;2023-11-21T04:10:16;10.20;89.60
52245;DHT22;55759;51.586;-1.758;2023-11-21T04:12:42;10.20;89.60
52245;DHT22;55759;51.586;-1.758;2023-11-21T04:15:08;10.20;89.70
52245;DHT22;55759;51.586;-1.758;2023-11-21T04:17:34;10.20;89.70
52245;DHT22;55759;51.586;-1.758;2023-11-21T04:20:00;10.20;89.60
52245;DHT22;55759;51.586;-1.758;2023-11-21T04:22:26;10.20;89.30
52245;DHT22;55759;51.586;-1.758;2023-11-21T04:24:51;10.20;89.20
52245;DHT22;55759;51.586;-1.758;2023-11-21T04:27:17;10.30;88.60
52245;DHT22;55759;51.586;-1.758;2023-11-21T04:29:45;10.20;88.50
52245;DHT22;55759;51.586;-1.758;2023-11-21T04:32:11;10.20;88.50
52245;DHT22;55759;51.586;-1.758;2023-11-21T04:34:38;10.20;88.70
52245;DHT22;55759;51.586;-1.758;2023-11-21T04:37:03;10.20;88.70
52245;DHT22;55759;51.586;-1.758;2023-11-21T04:39:31;10.20;88.90
52245;DHT22;55759;51.586;-1.758;2023-11-21T04:41:57;10.20;88.40
52245;DHT22;55759;51.586;-1.758;2023-11-21T04:44:22;10.30;88.20
52245;DHT22;55759;51.586;-1.758;2023-11-21T04:46:48;10.30;88.00
52245;DHT22;55759;51.586;-1.758;2023-11-21T04:49:14;10.30;87.60
52245;DHT22;55759;51.586;-1.758;2023-11-21T04:51:39;10.30;87.60
52245;DHT22;55759;51.586;-1.758;2023-11-21T04:54:05;10.30;87.80
52245;DHT22;55759;51.586;-1.758;2023-11-21T04:56:31;10.30;87.80
52245;DHT22;55759;51.586;-1.758;2023-11-21T04:58:56;10.30;87.80
52245;DHT22;55759;51.586;-1.758;2023-11-21T05:01:22;10.30;87.80
52245;DHT22;55759;51.586;-1.758;2023-11-21T05:03:48;10.20;87.50
52245;DHT22;55759;51.586;-1.758;2023-11-21T05:06:14;10.30;87.80
52245;DHT22;55759;51.586;-1.758;2023-11-21T05:08:40;10.20;87.50
52245;DHT22;55759;51.586;-1.758;2023-11-21T05:11:05;10.30;87.20
52245;DHT22;55759;51.586;-1.758;2023-11-21T05:13:35;10.30;86.60
52245;DHT22;55759;51.586;-1.758;2023-11-21T05:16:01;10.30;86.60
52245;DHT22;55759;51.586;-1.758;2023-11-21T05:18:34;10.30;86.40
52245;DHT22;55759;51.586;-1.758;2023-11-21T05:20:59;10.30;86.50
52245;DHT22;55759;51.586;-1.758;2023-11-21T05:23:26;10.30;85.60
52245;DHT22;55759;51.586;-1.758;2023-11-21T05:25:51;10.30;85.70
52245;DHT22;55759;51.586;-1.758;2023-11-21T05:28:17;10.30;86.10
52245;DHT22;55759;51.586;-1.758;2023-11-21T05:30:43;10.30;86.50
52245;DHT22;55759;51.586;-1.758;2023-11-21T05:33:09;10.30;86.40
52245;DHT22;55759;51.586;-1.758;2023-11-21T05:35:35;10.30;86.50
52245;DHT22;55759;51.586;-1.758;2023-11-21T05:38:00;10.30;86.40
52245;DHT22;55759;51.586;-1.758;2023-11-21T05:40:26;10.20;86.70
52245;DHT22;55759;51.586;-1.758;2023-11-21T05:42:55;10.20;86.10
52245;DHT22;55759;51.586;-1.758;2023-11-21T05:45:21;10.20;85.60
52245;DHT22;55759;51.586;-1.758;2023-11-21T05:47:47;10.10;85.20
52245;DHT22;55759;51.586;-1.758;2023-11-21T05:50:13;10.10;84.60
52245;DHT22;55759;51.586;-1.758;2023-11-21T05:52:45;10.10;84.30
52245;DHT22;55759;51.586;-1.758;2023-11-21T05:55:11;10.10;84.20
52245;DHT22;55759;51.586;-1.758;2023-11-21T05:57:37;10.10;83.10
52245;DHT22;55759;51.586;-1.758;2023-11-21T06:00:07;10.00;82.30
52245;DHT22;55759;51.586;-1.758;2023-11-21T06:02:39;9.90;82.30
52245;DHT22;55759;51.586;-1.758;2023-11-21T06:05:05;9.90;81.60
52245;DHT22;55759;51.586;-1.758;2023-11-21T06:07:31;9.90;82.40
52245;DHT22;55759;51.586;-1.758;2023-11-21T06:09:57;9.90;82.40
52245;DHT22;55759;51.586;-1.758;2023-11-21T06:12:22;9.90;82.60
52245;DHT22;55759;51.586;-1.758;2023-11-21T06:14:48;9.80;82.40
52245;DHT22;55759;51.586;-1.758;2023-11-21T06:17:13;9.80;82.60
52245;DHT22;55759;51.586;-1.758;2023-11-21T06:19:39;9.80;82.40
52245;DHT22;55759;51.586;-1.758;2023-11-21T06:22:05;9.80;83.20
52245;DHT22;55759;51.586;-1.758;2023-11-21T06:24:33;9.70;82.80
52245;DHT22;55759;51.586;-1.758;2023-11-21T06:26:59;9.70;82.90
52245;DHT22;55759;51.586;-1.758;2023-11-21T06:29:27;9.70;82.40
52245;DHT22;55759;51.586;-1.758;2023-11-21T06:31:55;9.70;81.90
52245;DHT22;55759;51.586;-1.758;2023-11-21T06:34:21;9.70;81.90
52245;DHT22;55759;51.586;-1.758;2023-11-21T06:36:47;9.60;81.80
52245;DHT22;55759;51.586;-1.758;2023-11-21T06:39:12;9.60;82.00
52245;DHT22;55759;51.586;-1.758;2023-11-21T06:41:40;9.60;81.80
52245;DHT22;55759;51.586;-1.758;2023-11-21T06:44:06;9.60;81.30
52245;DHT22;55759;51.586;-1.758;2023-11-21T06:46:31;9.60;81.30
52245;DHT22;55759;51.586;-1.758;2023-11-21T06:48:57;9.50;81.50
52245;DHT22;55759;51.586;-1.758;2023-11-21T06:51:22;9.50;81.50
52245;DHT22;55759;51.586;-1.758;2023-11-21T06:53:48;9.50;81.40
52245;DHT22;55759;51.586;-1.758;2023-11-21T06:56:17;9.50;81.90
52245;DHT22;55759;51.586;-1.758;2023-11-21T06:58:43;9.50;82.40
52245;DHT22;55759;51.586;-1.758;2023-11-21T07:01:11;9.40;82.40
52245;DHT22;55759;51.586;-1.758;2023-11-21T07:03:36;9.50;82.80
52245;DHT22;55759;51.586;-1.758;2023-11-21T07:06:03;9.40;82.70
52245;DHT22;55759;51.586;-1.758;2023-11-21T07:08:28;9.50;83.20
52245;DHT22;55759;51.586;-1.758;2023-11-21T07:10:54;9.40;82.50
52245;DHT22;55759;51.586;-1.758;2023-11-21T07:13:19;9.40;82.80
52245;DHT22;55759;51.586;-1.758;2023-11-21T07:15:46;9.50;82.40
52245;DHT22;55759;51.586;-1.758;2023-11-21T07:18:11;9.50;82.20
52245;DHT22;55759;51.586;-1.758;2023-11-21T07:20:37;9.40;82.30
52245;DHT22;55759;51.586;-1.758;2023-11-21T07:23:02;9.40;82.30
52245;DHT22;55759;51.586;-1.758;2023-11-21T07:25:29;9.40;82.60
52245;DHT22;55759;51.586;-1.758;2023-11-21T07:27:59;9.40;82.80
52245;DHT22;55759;51.586;-1.758;2023-11-21T07:30:25;9.40;82.80
52245;DHT22;55759;51.586;-1.758;2023-11-21T07:32:50;9.40;82.90
52245;DHT22;55759;51.586;-1.758;2023-11-21T07:35:16;9.40;82.60
52245;DHT22;55759;51.586;-1.758;2023-11-21T07:37:41;9.40;82.50
52245;DHT22;55759;51.586;-1.758;2023-11-21T07:40:08;9.40;82.90
52245;DHT22;55759;51.586;-1.758;2023-11-21T07:42:34;9.40;83.10
52245;DHT22;55759;51.586;-1.758;2023-11-21T07:45:00;9.40;83.00
52245;DHT22;55759;51.586;-1.758;2023-11-21T07:47:25;9.30;83.20
52245;DHT22;55759;51.586;-1.758;2023-11-21T07:49:53;9.40;83.50
52245;DHT22;55759;51.586;-1.758;2023-11-21T07:52:18;9.40;83.70
52245;DHT22;55759;51.586;-1.758;2023-11-21T07:54:46;9.40;83.70
52245;DHT22;55759;51.586;-1.758;2023-11-21T07:57:12;9.40;83.70
52245;DHT22;55759;51.586;-1.758;2023-11-21T07:59:47;9.40;84.10
52245;DHT22;55759;51.586;-1.758;2023-11-21T08:02:13;9.40;83.60
52245;DHT22;55759;51.586;-1.758;2023-11-21T08:04:42;9.40;83.80
52245;DHT22;55759;51.586;-1.758;2023-11-21T08:07:08;9.30;84.00
52245;DHT22;55759;51.586;-1.758;2023-11-21T08:09:37;9.40;83.90
52245;DHT22;55759;51.586;-1.758;2023-11-21T08:12:03;9.40;83.70
52245;DHT22;55759;51.586;-1.758;2023-11-21T08:14:30;9.40;83.50
52245;DHT22;55759;51.586;-1.758;2023-11-21T08:16:55;9.30;84.00
52245;DHT22;55759;51.586;-1.758;2023-11-21T08:19:23;9.40;84.20
52245;DHT22;55759;51.586;-1.758;2023-11-21T08:21:50;9.40;84.20
52245;DHT22;55759;51.586;-1.758;2023-11-21T08:24:16;9.40;84.50
52245;DHT22;55759;51.586;-1.758;2023-11-21T08:26:42;9.40;84.00
52245;DHT22;55759;51.586;-1.758;2023-11-21T08:29:08;9.40;83.80
52245;DHT22;55759;51.586;-1.758;2023-11-21T08:31:34;9.40;83.70
52245;DHT22;55759;51.586;-1.758;2023-11-21T08:33:59;9.40;83.90
52245;DHT22;55759;51.586;-1.758;2023-11-21T08:36:27;9.40;83.60
52245;DHT22;55759;51.586;-1.758;2023-11-21T08:38:53;9.50;84.10
52245;DHT22;55759;51.586;-1.758;2023-11-21T08:41:21;9.50;83.90
52245;DHT22;55759;51.586;-1.758;2023-11-21T08:43:47;9.50;83.90
52245;DHT22;55759;51.586;-1.758;2023-11-21T08:46:14;9.50;83.50
52245;DHT22;55759;51.586;-1.758;2023-11-21T08:48:40;9.50;83.40
52245;DHT22;55759;51.586;-1.758;2023-11-21T08:51:09;9.60;83.60
52245;DHT22;55759;51.586;-1.758;2023-11-21T08:53:41;9.60;83.50
52245;DHT22;55759;51.586;-1.758;2023-11-21T08:56:06;9.60;83.70
52245;DHT22;55759;51.586;-1.758;2023-11-21T08:58:32;9.60;83.60
52245;DHT22;55759;51.586;-1.758;2023-11-21T09:00:58;9.60;83.40
52245;DHT22;55759;51.586;-1.758;2023-11-21T09:03:24;9.60;83.50
52245;DHT22;55759;51.586;-1.758;2023-11-21T09:05:50;9.70;83.40
52245;DHT22;55759;51.586;-1.758;2023-11-21T09:08:16;9.70;83.30
52245;DHT22;55759;51.586;-1.758;2023-11-21T09:10:41;9.70;83.50
52245;DHT22;55759;51.586;-1.758;2023-11-21T09:13:08;9.70;83.30
52245;DHT22;55759;51.586;-1.758;2023-11-21T09:15:34;9.70;83.50
52245;DHT22;55759;51.586;-1.758;2023-11-21T09:18:00;9.70;83.60
52245;DHT22;55759;51.586;-1.758;2023-11-21T09:20:27;9.70;83.50
52245;DHT22;55759;51.586;-1.758;2023-11-21T09:22:52;9.70;83.50
52245;DHT22;55759;51.586;-1.758;2023-11-21T09:25:19;9.70;83.50
52245;DHT22;55759;51.586;-1.758;2023-11-21T09:27:46;9.70;83.60
52245;DHT22;55759;51.586;-1.758;2023-11-21T09:30:12;9.70;83.60
52245;DHT22;55759;51.586;-1.758;2023-11-21T09:32:39;9.80;83.60
52245;DHT22;55759;51.586;-1.758;2023-11-21T09:35:05;9.80;83.50
52245;DHT22;55759;51.586;-1.758;2023-11-21T09:37:33;9.80;83.30
52245;DHT22;55759;51.586;-1.758;2023-11-21T09:39:59;9.70;83.60
52245;DHT22;55759;51.586;-1.758;2023-11-21T09:42:40;9.80;83.70
52245;DHT22;55759;51.586;-1.758;2023-11-21T09:45:12;9.80;83.90
52245;DHT22;55759;51.586;-1.758;2023-11-21T09:47:41;9.80;83.80
52245;DHT22;55759;51.586;-1.758;2023-11-21T09:50:07;9.80;83.90
52245;DHT22;55759;51.586;-1.758;2023-11-21T09:52:40;9.90;83.80
52245;DHT22;55759;51.586;-1.758;2023-11-21T09:55:09;9.90;83.80
52245;DHT22;55759;51.586;-1.758;2023-11-21T09:57:38;9.90;84.00
52245;DHT22;55759;51.586;-1.758;2023-11-21T10:00:04;10.00;83.90
52245;DHT22;55759;51.586;-1.758;2023-11-21T10:02:31;10.00;83.80
52245;DHT22;55759;51.586;-1.758;2023-11-21T10:05:00;10.00;83.90
52245;DHT22;55759;51.586;-1.758;2023-11-21T10:07:25;10.10;83.70
52245;DHT22;55759;51.586;-1.758;2023-11-21T10:09:51;10.20;83.40
52245;DHT22;55759;51.586;-1.758;2023-11-21T10:12:18;10.10;83.50
52245;DHT22;55759;51.586;-1.758;2023-11-21T10:14:46;10.20;83.30
52245;DHT22;55759;51.586;-1.758;2023-11-21T10:17:13;10.10;83.50
52245;DHT22;55759;51.586;-1.758;2023-11-21T10:19:41;10.10;83.70
52245;DHT22;55759;51.586;-1.758;2023-11-21T10:22:07;10.10;83.90
52245;DHT22;55759;51.586;-1.758;2023-11-21T10:24:34;10.10;84.00
52245;DHT22;55759;51.586;-1.758;2023-11-21T10:26:59;10.10;84.30
52245;DHT22;55759;51.586;-1.758;2023-11-21T10:29:33;10.10;84.50
52245;DHT22;55759;51.586;-1.758;2023-11-21T10:32:04;10.20;84.40
52245;DHT22;55759;51.586;-1.758;2023-11-21T10:34:30;10.20;84.40
52245;DHT22;55759;51.586;-1.758;2023-11-21T10:36:56;10.20;84.10
52245;DHT22;55759;51.586;-1.758;2023-11-21T10:39:23;10.20;84.20
52245;DHT22;55759;51.586;-1.758;2023-11-21T10:41:53;10.20;84.30
52245;DHT22;55759;51.586;-1.758;2023-11-21T10:44:20;10.20;84.60
52245;DHT22;55759;51.586;-1.758;2023-11-21T10:46:50;10.20;84.80
52245;DHT22;55759;51.586;-1.758;2023-11-21T10:49:19;10.30;85.10
52245;DHT22;55759;51.586;-1.758;2023-11-21T10:51:45;10.40;84.80
52245;DHT22;55759;51.586;-1.758;2023-11-21T10:54:10;10.40;84.40
52245;DHT22;55759;51.586;-1.758;2023-11-21T10:56:38;10.40;84.50
52245;DHT22;55759;51.586;-1.758;2023-11-21T10:59:09;10.40;84.40
52245;DHT22;55759;51.586;-1.758;2023-11-21T11:01:44;10.50;84.70
52245;DHT22;55759;51.586;-1.758;2023-11-21T11:04:10;10.50;84.80
52245;DHT22;55759;51.586;-1.758;2023-11-21T11:06:42;10.50;84.60
52245;DHT22;55759;51.586;-1.758;2023-11-21T11:09:12;10.40;84.70
52245;DHT22;55759;51.586;-1.758;2023-11-21T11:11:41;10.50;84.30
52245;DHT22;55759;51.586;-1.758;2023-11-21T11:14:13;10.40;84.40
52245;DHT22;55759;51.586;-1.758;2023-11-21T11:16:39;10.40;84.50
52245;DHT22;55759;51.586;-1.758;2023-11-21T11:19:06;10.40;84.60
52245;DHT22;55759;51.586;-1.758;2023-11-21T11:24:13;10.50;84.90
52245;DHT22;55759;51.586;-1.758;2023-11-21T11:26:45;10.40;84.90
52245;DHT22;55759;51.586;-1.758;2023-11-21T11:29:23;10.40;85.10
52245;DHT22;55759;51.586;-1.758;2023-11-21T11:35:01;10.50;84.90
52245;DHT22;55759;51.586;-1.758;2023-11-21T11:37:36;10.40;85.10
52245;DHT22;55759;51.586;-1.758;2023-11-21T11:40:05;10.50;85.40
52245;DHT22;55759;51.586;-1.758;2023-11-21T11:42:32;10.50;85.10
52245;DHT22;55759;51.586;-1.758;2023-11-21T11:45:16;10.40;85.40
52245;DHT22;55759;51.586;-1.758;2023-11-21T11:47:48;10.40;85.80
52245;DHT22;55759;51.586;-1.758;2023-11-21T11:50:21;10.40;86.00
52245;DHT22;55759;51.586;-1.758;2023-11-21T11:52:51;10.40;86.10
52245;DHT22;55759;51.586;-1.758;2023-11-21T11:55:19;10.40;86.30
52245;DHT22;55759;51.586;-1.758;2023-11-21T11:57:45;10.40;85.90
52245;DHT22;55759;51.586;-1.758;2023-11-21T12:00:15;10.30;86.20
52245;DHT22;55759;51.586;-1.758;2023-11-21T12:02:42;10.30;86.60
52245;DHT22;55759;51.586;-1.758;2023-11-21T12:05:15;10.20;86.80
52245;DHT22;55759;51.586;-1.758;2023-11-21T12:10:14;10.10;87.30
52245;DHT22;55759;51.586;-1.758;2023-11-21T12:12:44;10.10;87.50
52245;DHT22;55759;51.586;-1.758;2023-11-21T12:15:11;10.10;87.50
52245;DHT22;55759;51.586;-1.758;2023-11-21T12:17:46;10.20;87.20
52245;DHT22;55759;51.586;-1.758;2023-11-21T12:20:19;10.30;87.40
52245;DHT22;55759;51.586;-1.758;2023-11-21T12:28:36;10.40;86.50
52245;DHT22;55759;51.586;-1.758;2023-11-21T12:31:01;10.20;86.70
52245;DHT22;55759;51.586;-1.758;2023-11-21T12:33:27;10.20;86.70
52245;DHT22;55759;51.586;-1.758;2023-11-21T12:36:03;10.20;87.00
52245;DHT22;55759;51.586;-1.758;2023-11-21T12:38:34;10.10;87.10
52245;DHT22;55759;51.586;-1.758;2023-11-21T12:41:03;10.10;86.90
52245;DHT22;55759;51.586;-1.758;2023-11-21T12:43:29;10.00;86.40
52245;DHT22;55759;51.586;-1.758;2023-11-21T12:46:06;10.00;86.80
52245;DHT22;55759;51.586;-1.758;2023-11-21T12:48:32;10.00;87.00
52245;DHT22;55759;51.586;-1.758;2023-11-21T12:50:58;10.10;87.00
52245;DHT22;55759;51.586;-1.758;2023-11-21T12:53:25;10.20;86.70
52245;DHT22;55759;51.586;-1.758;2023-11-21T12:55:51;10.40;85.70
52245;DHT22;55759;51.586;-1.758;2023-11-21T12:58:17;10.50;85.30
52245;DHT22;55759;51.586;-1.758;2023-11-21T13:00:48;10.50;84.40
52245;DHT22;55759;51.586;-1.758;2023-11-21T13:03:19;10.60;83.80
52245;DHT22;55759;51.586;-1.758;2023-11-21T13:05:52;10.60;83.50
52245;DHT22;55759;51.586;-1.758;2023-11-21T13:08:20;10.60;83.40
52245;DHT22;55759;51.586;-1.758;2023-11-21T13:10:56;10.60;83.30
52245;DHT22;55759;51.586;-1.758;2023-11-21T13:13:22;10.70;83.40
52245;DHT22;55759;51.586;-1.758;2023-11-21T13:15:50;10.80;83.40
52245;DHT22;55759;51.586;-1.758;2023-11-21T13:18:16;11.00;83.30
52245;DHT22;55759;51.586;-1.758;2023-11-21T13:20:42;11.10;82.90
52245;DHT22;55759;51.586;-1.758;2023-11-21T13:23:16;11.10;82.10
52245;DHT22;55759;51.586;-1.758;2023-11-21T13:25:42;11.10;81.80
52245;DHT22;55759;51.586;-1.758;2023-11-21T13:28:08;11.10;81.40
52245;DHT22;55759;51.586;-1.758;2023-11-21T13:30:38;11.00;81.00
52245;DHT22;55759;51.586;-1.758;2023-11-21T13:33:08;10.90;81.50
52245;DHT22;55759;51.586;-1.758;2023-11-21T13:35:35;10.90;81.80
52245;DHT22;55759;51.586;-1.758;2023-11-21T13:38:21;10.90;82.10
52245;DHT22;55759;51.586;-1.758;2023-11-21T13:40:50;11.00;81.70
52245;DHT22;55759;51.586;-1.758;2023-11-21T13:43:19;10.90;81.80
52245;DHT22;55759;51.586;-1.758;2023-11-21T13:45:46;10.90;82.20
52245;DHT22;55759;51.586;-1.758;2023-11-21T13:48:12;10.80;82.40
52245;DHT22;55759;51.586;-1.758;2023-11-21T13:50:45;10.80;82.80
52245;DHT22;55759;51.586;-1.758;2023-11-21T13:53:20;10.90;82.40
52245;DHT22;55759;51.586;-1.758;2023-11-21T13:55:51;10.90;82.10
52245;DHT22;55759;51.586;-1.758;2023-11-21T13:58:25;11.00;82.00
52245;DHT22;55759;51.586;-1.758;2023-11-21T14:01:13;11.10;81.00
52245;DHT22;55759;51.586;-1.758;2023-11-21T14:03:59;11.10;81.00
52245;DHT22;55759;51.586;-1.758;2023-11-21T14:06:45;11.10;80.90
52245;DHT22;55759;51.586;-1.758;2023-11-21T14:09:16;11.00;81.50
52245;DHT22;55759;51.586;-1.758;2023-11-21T14:14:17;11.00;82.70
52245;DHT22;55759;51.586;-1.758;2023-11-21T14:16:43;11.00;81.60
52245;DHT22;55759;51.586;-1.758;2023-11-21T14:19:10;10.90;81.10
52245;DHT22;55759;51.586;-1.758;2023-11-21T14:21:58;10.90;81.80
52245;DHT22;55759;51.586;-1.758;2023-11-21T14:24:26;10.80;81.70
52245;DHT22;55759;51.586;-1.758;2023-11-21T14:26:57;10.80;81.60
52245;DHT22;55759;51.586;-1.758;2023-11-21T14:29:26;10.70;82.00
52245;DHT22;55759;51.586;-1.758;2023-11-21T14:31:52;10.70;81.70
52245;DHT22;55759;51.586;-1.758;2023-11-21T14:34:21;10.70;81.70
52245;DHT22;55759;51.586;-1.758;2023-11-21T14:36:50;10.60;81.70
52245;DHT22;55759;51.586;-1.758;2023-11-21T14:39:16;10.60;82.20
52245;DHT22;55759;51.586;-1.758;2023-11-21T14:42:04;10.70;82.20
52245;DHT22;55759;51.586;-1.758;2023-11-21T14:44:33;10.70;81.60
52245;DHT22;55759;51.586;-1.758;2023-11-21T14:47:05;10.70;82.50
52245;DHT22;55759;51.586;-1.758;2023-11-21T14:49:38;10.80;82.30
52245;DHT22;55759;51.586;-1.758;2023-11-21T14:52:20;10.80;82.00
52245;DHT22;55759;51.586;-1.758;2023-11-21T14:58:11;10.80;81.50
52245;DHT22;55759;51.586;-1.758;2023-11-21T15:00:41;10.80;81.90
52245;DHT22;55759;51.586;-1.758;2023-11-21T15:03:10;10.80;81.90
52245;DHT22;55759;51.586;-1.758;2023-11-21T15:05:41;10.80;82.10
52245;DHT22;55759;51.586;-1.758;2023-11-21T15:08:07;10.80;82.50
52245;DHT22;55759;51.586;-1.758;2023-11-21T15:10:51;10.70;82.50
52245;DHT22;55759;51.586;-1.758;2023-11-21T15:13:21;10.60;82.20
52245;DHT22;55759;51.586;-1.758;2023-11-21T15:15:51;10.60;82.20
52245;DHT22;55759;51.586;-1.758;2023-11-21T15:18:19;10.60;82.30
52245;DHT22;55759;51.586;-1.758;2023-11-21T15:20:45;10.60;82.10
52245;DHT22;55759;51.586;-1.758;2023-11-21T15:23:11;10.50;82.70
52245;DHT22;55759;51.586;-1.758;2023-11-21T15:25:38;10.50;82.80
52245;DHT22;55759;51.586;-1.758;2023-11-21T15:28:04;10.50;82.40
52245;DHT22;55759;51.586;-1.758;2023-11-21T15:30:30;10.40;82.80
52245;DHT22;55759;51.586;-1.758;2023-11-21T15:33:00;10.40;83.20
52245;DHT22;55759;51.586;-1.758;2023-11-21T15:35:56;10.40;82.00
52245;DHT22;55759;51.586;-1.758;2023-11-21T16:26:07;9.70;80.90
52245;DHT22;55759;51.586;-1.758;2023-11-21T16:28:34;9.80;81.20
52245;DHT22;55759;51.586;-1.758;2023-11-21T16:30:59;9.70;80.70
52245;DHT22;55759;51.586;-1.758;2023-11-21T16:39:44;9.70;82.00